Merritt Island, FL

12:11 AM EDT en Octubre 25, 2014 (GMT -0400)
Nasa Shuttle | Change Station
CLOSE
Current Station
Aeropuerto
Location: Nasa Shuttle,
Altura: 10 ft
Estaciones meteorológicas cercanas

Alt 10 ft 28.61 °N, 80.69 °W | Updated 13 minutes ago

Muy nublado
Muy nublado
70 ° F
Sensación térmica 70 ° F
N
5
Viento Variable Viento desde Norte

Hoy
Alta -- | Baja -- ° F
--% Posibilidad de precipitaciones
Ayer
Alta -- | Baja -- ° F
Precip. -- pul
7:29 AM 6:43 PM
Luna nueva, 2% visible
Presión 29.97 pul
Visibilidad 10.0 Millas
Nubes Muy nublado 5000 ft
Punto de rocío 58 ° F
Humedad 64%
Precipitaciones 0.00 pul
Espesor de la nieve No disponible.
UV 0 de una escala de 12
Polen 5.70 de una escala de 12
Calidad del aire No disponible.
Flu Activity Local Activity
METAR KTTS 250358Z AUTO 36004KT 10SM BKN050 21/14 A2996 RMK AO2 SLP148 T02140144 VISNO RWY33 CHINO RWY33

More Conditions Fewer Conditions

Presión 29.97 pul
Visibilidad 10.0 Millas
Nubes Muy nublado 5000 ft
Punto de rocío 58 ° F
Humedad 64%
Precipitaciones 0.00 pul
Espesor de la nieve No disponible.
UV 0 de una escala de 12
Polen 5.70 de una escala de 12
Calidad del aire No disponible.
Flu Activity Local Activity
METAR KTTS 250358Z AUTO 36004KT 10SM BKN050 21/14 A2996 RMK AO2 SLP148 T02140144 VISNO RWY33 CHINO RWY33

More Conditions Fewer Conditions

Nowcast | as of 10:46 PM EDT on October 24, 2014

Expect a cool evening under partly cloudy skies. A little more cloud cover is possible along the space and Treasure Coast tonight... however no rain is forecast. Lows will range from the upper 50s to lower 60s by daybreak. Additional details...including graphics are available online at: http://www.Srh.NOAA.Gov/mlb/blog.Php

×

10-Day Weather Forecast

Almanac

Astronomía

Oct. 25, 2014 Salida Puesta
Hora real 7:29 AM EDT 6:43 PM EDT
Crepúsculo civil 7:05 AM EDT 7:07 PM EDT
Crepúsculo náutico 6:37 AM EDT 7:35 PM EDT
Crepúsculo astronómico 6:10 AM EDT 8:02 PM EDT
Luna 9:01 AM EDT 8:12 PM EDT
Horas de luz 12h 02m
Horas de luz
11h 13m
Tomorrow will be 1m 32s shorter.
Luna nueva, 2% of the Moon is Illuminated
Hoy
Luna nueva
Oct 30
Cuarto creciente
Nov 6
Luna llena
Nov 14
Cuarto menguante
Nov 22
Nueva

Extremos de ayer

Máximos del estado Bajos del estado

Community

WunderPhotos

Upload Photos

1,764,779 ¡fotos cargadas!

Nearby

Grosos de nieve

Estación Profundido Altura
No tenemos constancia de nieve nueva.

Actividad de terremotos

Ciudad Distance Mag. Tiempo y dato
No hay informes recientes de la actividad sísmica.
Magnitud mínima muestra es 2,5.

Temperaturas de aguas costeras

Lugar Temperatura
Trident Pier, FL 79.0 ° F
Fort Myers, FL 78.1 ° F
Lake Worth, FL 79.0 ° F

Estaciones meteorológicas cercanas